Date,TemperatureHighF,TemperatureAvgF,TemperatureLowF,DewpointHighF,DewpointAvgF,DewpointLowF,HumidityHigh,HumidityAvg,HumidityLow,PressureMaxIn,PressureMinIn,WindSpeedMaxMPH,WindSpeedAvgMPH,GustSpeedMaxMPH,PrecipitationSumIn
2012-8-6,63.5,60.1,56.8,52.8,52.1,50.2,79,75,67,29.93,29.92,4,1,4,0.00
2012-8-7,96.8,71.1,48.0,55.9,49.0,29.0,91,54,10,29.93,29.80,10,2,10,0.00
2012-8-8,100.4,72.6,48.2,53.5,48.5,39.9,89,52,13,29.88,29.73,11,2,11,0.00
2012-8-9,101.7,73.8,49.8,54.8,50.0,38.7,88,52,12,29.81,29.66,11,2,11,0.00
2012-8-10,97.9,71.2,50.7,55.6,50.8,41.7,88,55,15,29.72,29.57,12,2,12,0.00
2012-8-11,100.4,74.9,49.6,56.4,49.4,40.2,89,50,13,29.96,29.62,11,3,11,0.09
2012-8-12,90.3,66.2,50.2,57.4,49.9,44.3,91,63,21,30.00,29.88,8,3,14,0.00
2012-8-13,94.3,70.1,52.2,56.0,49.1,28.8,86,55,10,29.99,29.86,8,3,11,0.00
2012-8-14,85.5,66.3,53.8,54.8,51.5,44.4,86,62,27,29.96,29.88,8,3,11,0.00
2012-8-15,81.9,65.3,55.4,57.7,53.7,50.3,89,70,36,30.04,29.93,9,4,13,0.00
2012-8-16,88.0,65.4,54.1,56.9,52.7,47.6,89,68,26,30.09,29.98,8,3,13,0.00
2012-8-17,84.6,65.8,53.6,57.1,53.5,51.6,94,69,36,30.14,30.00,10,3,11,0.00
2012-8-18,90.0,70.2,56.3,57.4,53.4,50.2,85,60,29,30.08,29.97,10,3,14,0.00
2012-8-19,84.6,63.8,49.3,56.4,51.3,45.8,93,68,33,30.09,29.98,9,2,13,0.00
2012-8-20,88.9,64.5,51.1,56.5,51.7,48.8,95,69,29,30.07,29.93,10,3,12,0.00
2012-8-21,87.3,66.4,52.2,56.4,52.8,49.4,92,66,31,30.04,29.92,10,2,14,0.00
2012-8-22,83.8,62.2,48.2,58.1,52.0,45.4,93,73,37,30.02,29.94,10,3,13,0.00
2012-8-23,81.5,65.9,51.3,58.4,53.2,49.3,95,67,43,30.06,29.91,8,3,11,0.00
2012-8-24,83.3,61.2,47.8,58.5,51.5,45.6,96,74,40,29.97,29.87,8,3,11,0.00
2012-8-25,74.7,59.0,50.9,55.1,51.1,48.4,93,77,47,29.95,29.83,10,3,13,0.00
2012-8-26,79.2,63.2,52.7,54.4,51.4,46.9,89,68,38,30.04,29.89,10,2,11,0.00
2012-8-27,90.9,67.7,47.8,59.2,52.8,45.2,91,63,32,30.11,29.97,8,2,10,0.00
2012-8-28,92.8,72.0,50.7,58.4,49.3,38.5,92,53,17,30.08,29.96,7,2,11,0.00
2012-8-29,97.3,73.1,48.6,54.3,44.5,26.3,86,45,10,29.99,29.82,7,2,10,0.00
2012-8-30,87.3,65.0,49.5,53.9,48.7,44.1,88,60,26,29.89,29.79,11,3,14,0.00
2012-8-31,74.1,60.4,50.9,55.4,52.0,46.7,88,75,51,30.00,29.89,9,2,13,0.00
2012-9-1,82.4,61.5,48.2,57.5,51.4,45.1,91,72,41,30.10,29.99,8,2,11,0.00
2012-9-2,92.8,66.9,44.4,55.6,46.6,27.1,94,59,10,30.05,29.92,7,2,9,0.00
2012-9-3,94.5,69.7,48.0,55.1,46.6,28.5,90,53,10,30.02,29.92,9,2,11,0.00
2012-9-4,85.5,63.0,50.0,55.0,50.8,46.9,94,70,27,30.08,29.98,9,3,11,0.00
2012-9-5,75.2,59.8,52.5,55.9,52.0,49.3,95,78,47,30.06,29.96,8,2,12,0.00
2012-9-6,79.2,60.3,51.1,53.1,49.7,47.2,94,72,35,30.09,29.98,9,3,12,0.00
2012-9-7,84.9,63.5,50.2,51.8,47.9,41.4,90,64,22,30.17,30.03,8,2,10,0.00
2012-9-8,82.8,62.4,50.0,54.6,49.1,46.3,91,65,35,29.93,29.77,9,3,11,0.00
2012-9-9,88.2,63.8,43.0,53.6,47.8,40.5,93,62,22,29.92,29.77,7,2,11,0.00
2012-9-10,92.1,43.3,0.0,51.8,45.4,31.6,91,54,12,29.96,29.73,7,1,9,0.00
2012-9-11,85.6,64.2,48.9,56.8,51.7,45.8,90,67,35,30.09,29.95,9,2,11,0.00
2012-9-12,83.5,63.3,51.1,55.9,52.3,48.0,95,72,33,30.21,30.08,8,2,11,0.00
2012-9-13,89.8,64.7,48.7,55.9,51.0,45.9,91,67,27,30.22,30.10,8,2,10,0.00
2012-9-14,82.2,63.6,53.2,57.0,52.8,50.1,94,72,40,30.24,29.91,8,3,10,0.00
2012-9-15,85.3,63.0,51.8,55.0,50.8,46.5,94,70,31,30.04,29.90,9,2,11,0.00
2012-9-16,82.6,60.1,48.9,53.6,48.2,34.7,96,72,18,30.00,29.87,7,2,11,0.00
2012-9-17,77.2,58.4,50.2,53.1,49.4,47.6,93,75,42,30.01,29.89,8,3,10,0.00
2012-9-18,82.4,60.2,50.5,53.6,49.6,46.6,91,72,30,30.06,29.91,7,2,10,0.00
2012-9-19,81.9,60.8,48.9,54.0,50.3,45.0,95,72,31,30.06,29.93,8,2,10,0.00
2012-9-20,84.6,61.4,43.7,53.1,47.2,41.2,95,65,31,30.63,29.86,7,2,10,0.00
2012-9-21,89.4,63.8,42.4,50.5,45.3,37.1,90,58,16,29.94,29.79,8,1,11,0.00
2012-9-22,91.4,65.1,43.3,52.1,45.0,28.9,91,56,12,29.87,29.77,7,1,9,0.00
2012-9-23,88.3,62.7,48.2,51.0,46.0,23.3,92,61,12,29.91,29.82,9,2,14,0.00
2012-9-24,84.2,61.6,49.6,56.6,51.4,47.3,94,73,36,29.92,29.78,8,2,11,0.00
2012-9-25,78.1,60.0,46.0,56.2,49.9,-7.2,93,72,10,29.86,29.75,10,2,12,0.00
2012-9-26,81.7,61.2,50.7,57.1,51.7,7.5,95,75,10,29.85,29.74,7,2,8,0.00
2012-9-27,85.1,68.2,0.0,56.0,51.2,45.1,95,61,34,29.88,29.74,4,2,4,1.51
2012-9-28,120.2,59.6,0.0,99.9,50.2,10.7,96,77,10,29.93,29.81,7,3,11,0.00
2012-9-29,86.0,63.3,52.3,56.9,52.3,49.1,95,72,30,30.00,29.90,8,2,11,0.00
2012-9-30,101.3,68.1,44.2,53.8,43.3,26.4,93,54,10,30.03,29.90,7,1,8,0.00
2012-10-1,100.2,72.3,50.2,52.1,40.7,26.9,77,41,10,29.97,29.83,5,1,5,0.00
2012-10-2,105.8,71.7,0.0,47.4,40.7,32.2,68,37,10,29.85,29.71,5,1,5,0.00
2012-10-3,93.2,67.9,0.0,55.8,47.4,36.9,88,52,15,29.97,29.76,13,3,13,0.00
2012-10-4,72.7,62.0,54.7,56.7,54.1,0.4,87,76,55,30.10,29.97,9,2,10,0.00
2012-10-5,76.1,60.8,49.1,56.8,51.6,46.9,93,74,47,30.12,30.01,9,1,11,0.00
2012-10-6,78.4,64.7,50.2,55.4,52.5,47.7,91,67,41,30.03,29.90,6,3,9,0.00
2012-10-7,79.5,61.0,50.0,56.3,51.4,46.1,92,73,39,29.98,29.86,7,2,9,1.51
2012-10-8,76.3,59.1,50.5,54.8,49.8,46.1,89,73,44,30.00,29.84,8,2,12,0.00
2012-10-9,77.0,60.3,46.6,53.7,49.1,43.9,95,70,38,29.92,29.80,6,2,8,0.00
2012-10-10,80.6,59.0,45.1,54.0,48.7,42.1,95,73,33,29.85,29.71,9,2,11,0.00
2012-10-11,60.6,55.9,51.4,52.3,50.8,48.9,91,83,73,29.83,29.74,6,2,10,0.00
2012-10-12,66.0,58.3,49.5,53.2,50.4,46.1,88,76,59,30.12,29.83,5,1,8,0.00
2012-10-13,69.1,50.2,46.0,54.0,46.5,44.1,94,88,58,30.19,30.11,2,0,27,0.00
2012-10-14,84.0,63.5,53.4,61.5,56.0,50.6,96,79,45,30.11,29.93,7,2,10,0.00
2012-10-15,89.8,66.1,51.1,61.6,55.3,25.7,96,73,10,29.99,29.81,8,1,11,0.00
2012-10-16,90.7,72.0,64.0,65.5,61.3,14.6,89,72,10,29.88,29.72,52,2,98,0.05
2012-10-17,99.3,71.8,55.2,52.2,43.5,22.4,75,45,10,29.81,29.65,6,1,8,0.00
2012-10-18,93.2,66.4,48.4,59.1,44.9,35.7,85,52,14,29.92,29.76,12,2,12,0.00
2012-10-19,81.1,65.7,58.1,60.3,57.2,55.1,90,76,45,29.95,29.79,7,2,10,0.00
2012-10-20,84.2,63.6,53.4,58.3,48.8,23.1,97,66,11,30.53,29.63,6,2,12,0.00
2012-10-21,73.9,57.2,45.5,49.5,40.0,28.4,87,56,20,29.80,29.70,7,2,10,0.01
2012-10-22,64.9,55.1,48.7,57.3,50.3,45.7,97,85,52,29.80,29.58,9,2,11,1.26
2012-10-23,66.2,52.4,44.2,54.1,45.6,40.8,97,80,46,29.93,29.80,6,1,7,0.04
2012-10-24,69.3,56.9,50.7,54.2,49.8,46.1,95,79,46,30.09,29.89,7,1,11,0.14
2012-10-25,74.8,59.0,48.4,56.0,48.3,38.6,95,72,33,30.15,30.08,4,1,7,0.09
2012-10-26,83.3,61.9,45.0,55.4,47.8,41.4,92,65,29,30.13,29.95,5,1,6,0.00
2012-10-27,91.0,71.1,54.0,58.9,55.3,50.4,90,61,31,29.98,29.81,4,1,5,0.00
2012-10-28,63.9,55.1,52.0,55.6,52.4,49.6,94,91,74,29.91,29.80,0,0,2,0.00
2012-10-29,83.3,59.4,0.0,71.3,52.1,4.1,95,77,10,29.99,29.89,5,1,7,0.38
2012-10-30,74.7,56.8,47.3,60.4,52.6,45.9,96,87,60,29.97,29.83,6,2,8,0.00
2012-10-31,58.3,56.7,55.6,57.2,55.5,54.0,96,96,93,29.89,29.83,3,0,4,0.17
2012-11-1,59.0,36.9,0.0,58.2,57.9,57.0,97,61,96,29.95,29.87,1,0,2,0.01
2012-11-2,66.7,44.8,0.0,58.0,45.9,42.1,96,82,56,29.98,29.90,8,0,50,0.05
2012-11-3,83.8,61.9,49.1,58.3,51.5,46.6,94,72,39,30.03,29.94,3,0,6,0.00
2012-11-4,88.5,64.0,48.9,61.8,54.1,47.3,95,74,35,30.10,29.99,3,0,4,0.00
2012-11-5,54.9,50.9,50.2,52.4,49.1,48.5,95,94,91,30.03,29.91,0,0,2,0.00
2012-11-6,54.1,48.9,48.2,51.6,47.2,46.6,94,94,91,29.98,29.85,0,0,0,0.00
2012-11-7,57.7,46.4,0.0,54.0,48.4,46.6,94,87,87,29.94,29.79,3,0,4,0.01
2012-11-8,115.3,49.3,29.3,48.3,39.0,-20.4,93,72,10,29.81,29.74,29,2,29,0.01
2012-11-9,63.3,45.2,35.1,44.1,36.4,10.7,94,75,15,29.87,29.77,93,2,103,0.00
2012-11-10,35.6,34.1,32.7,33.0,31.8,30.6,92,91,90,29.91,29.86,0,0,0,0.00
2012-11-12,64.9,62.7,60.4,43.7,41.1,37.9,53,45,37,29.92,29.89,3,2,4,0.00
2012-11-15,64.9,46.4,37.0,47.0,38.2,34.6,92,75,36,30.33,29.83,8,1,8,0.00
2012-11-16,65.7,45.1,32.0,44.9,34.4,29.9,94,71,28,30.10,29.88,7,1,11,0.00
2012-11-17,65.1,45.5,32.0,48.5,35.0,0.2,94,71,10,30.32,29.95,97,2,97,0.00
2012-11-18,62.6,50.4,39.6,53.0,46.5,38.8,97,87,59,30.12,29.95,3,0,4,0.01
2012-11-19,57.2,52.3,51.8,55.0,50.3,49.3,93,93,90,30.17,30.08,3,0,6,0.05
2012-11-20,60.8,59.1,56.5,59.2,57.8,55.0,97,96,92,30.09,29.92,10,4,10,0.59
2012-11-21,67.1,55.5,46.0,60.7,50.0,42.3,98,83,56,30.17,29.97,74,12,84,0.02
2012-11-22,73.4,56.2,39.4,51.2,45.0,37.8,95,69,40,30.22,30.11,3,0,6,0.01
2012-11-23,81.0,48.7,0.0,48.6,42.7,37.8,95,75,27,30.22,30.10,3,0,5,0.01
2012-11-24,79.2,45.7,14.7,52.7,40.0,-31.8,95,85,10,30.14,29.97,3,0,4,0.00
2012-11-25,76.1,53.2,40.3,55.8,46.4,39.0,96,80,45,29.98,29.85,4,1,6,0.00
2012-11-26,44.1,40.5,40.1,41.9,39.2,38.8,95,95,92,30.02,29.91,0,0,0,0.00
2012-11-27,59.0,45.3,40.1,50.2,42.0,38.8,95,89,71,30.05,29.92,5,0,7,0.01
2012-11-28,59.5,55.9,54.7,52.6,51.6,48.0,91,86,66,29.98,29.73,9,5,9,0.05
2012-11-29,55.2,31.4,0.0,52.6,52.6,52.6,91,52,91,29.97,29.81,5,3,8,0.05
2012-11-30,0.0,0.0,0.0,52.6,52.6,52.6,0,0,100,30.05,29.81,0,0,0,0.05
2012-12-1,60.8,40.7,0.0,59.4,56.7,52.6,97,64,91,30.04,29.76,7,4,7,5.49
2012-12-2,60.8,60.8,60.8,59.4,59.4,59.4,95,95,95,30.06,29.58,7,7,7,5.49
2012-12-3,60.8,60.8,60.8,59.4,59.4,59.4,95,95,95,30.14,30.04,7,7,7,5.49
2012-12-4,60.8,60.8,60.8,59.4,59.4,59.4,95,95,95,30.17,30.06,7,7,7,5.49
2012-12-5,60.8,60.8,60.8,59.4,59.4,59.4,95,95,95,30.10,30.02,7,7,7,5.49
2012-12-6,60.8,19.7,0.0,59.4,58.7,40.6,95,32,92,30.08,30.01,7,2,7,5.49
2012-12-7,72.5,47.8,36.5,48.0,41.5,35.2,96,81,37,30.08,30.00,2,0,4,0.00
2012-12-8,68.4,47.0,33.8,47.6,40.3,32.5,96,80,45,30.06,29.96,2,0,5,0.00
2012-12-9,78.1,55.1,39.9,48.9,43.6,37.2,91,69,33,30.11,30.01,3,0,4,0.00
2012-12-10,74.8,53.7,0.0,52.5,46.2,37.9,95,75,43,30.17,30.03,2,0,2,0.00
2012-12-11,54.5,53.3,48.9,48.5,47.9,44.1,95,82,78,30.03,29.75,2,0,3,0.06
2012-12-12,64.6,47.6,35.8,50.1,40.4,33.1,97,79,42,29.81,29.72,8,1,8,0.00
2012-12-13,56.5,47.1,32.2,43.1,37.8,30.7,95,72,57,29.85,29.75,2,1,2,0.00
2012-12-14,61.5,54.1,34.7,42.6,39.7,33.0,95,59,45,29.95,29.72,3,1,4,0.05
2012-12-15,46.2,39.8,32.2,44.0,38.2,30.9,96,94,91,29.98,29.90,3,0,4,0.17
2012-12-16,52.9,47.5,15.8,51.2,45.5,14.7,97,94,32,30.02,29.90,9,1,11,0.34
2012-12-17,61.5,54.8,45.3,52.6,47.8,35.9,94,78,61,29.97,29.86,6,2,11,0.12
2012-12-18,45.1,37.1,35.6,35.9,30.8,30.1,80,78,67,30.11,29.92,4,0,11,0.00
2012-12-19,50.7,28.2,0.0,31.3,26.9,25.2,87,59,46,30.23,30.10,2,0,5,0.00
2012-12-20,40.6,37.9,0.0,32.3,29.7,29.0,80,67,63,30.11,29.88,0,0,2,0.00
2012-12-21,54.0,48.5,35.6,52.9,45.5,30.0,96,89,80,29.90,29.78,9,3,10,1.04
2012-12-22,57.9,41.0,0.0,50.3,41.7,30.0,93,73,62,30.01,29.74,12,1,16,4.03
2012-12-23,62.2,50.8,40.6,54.4,47.1,37.9,95,87,65,30.00,29.76,16,3,23,1.95
2012-12-24,59.7,44.6,0.0,47.1,39.2,33.8,92,81,50,30.18,29.90,5,0,61,0.01
2012-12-25,46.6,43.8,39.4,43.8,41.4,37.5,93,91,85,30.40,29.50,8,0,13,0.70
2012-12-26,59.7,47.6,40.5,46.8,41.0,37.9,93,80,47,29.86,29.59,8,2,17,0.06
2012-12-27,64.6,49.0,41.4,41.1,38.3,35.6,84,69,37,29.92,29.84,3,1,8,0.00
2012-12-28,51.1,45.4,40.5,42.7,38.8,36.9,93,78,59,29.93,29.79,4,1,7,0.06
2012-12-29,57.7,45.4,40.8,40.4,39.1,35.9,87,79,48,30.02,29.77,49,24,49,6.12
2012-12-30,40.8,40.8,40.8,36.4,36.4,36.4,84,84,84,30.06,29.92,0,0,2,6.12
2012-12-31,57.7,42.5,29.3,42.6,35.2,27.5,94,78,41,30.17,29.83,5,1,5,0.05
2013-1-1,68.7,42.8,30.7,39.3,32.4,27.4,95,72,26,29.96,29.87,6,1,43,0.00